Snohomish, WA (98296)

10:57 AM PDT on September 02, 2014 (GMT -0700)
Horse Country | Change Station
CLOSE
Current Station
Personal Weather Station
Location: Snohomish, WA
Elevation: 568 ft
Nearby Weather Stations

Elev 568 ft 47.82 °N, 122.13 °W | Updated 11 seconds ago

Overcast
Overcast
60.4 °F
Feels Like 60.4 °F
N
2.9
Wind Variable Wind from NW
Gusts 3.0 mph

Today
High -- | Low -- °F
--% Chance of Precip.
Yesterday
High -- | Low -- °F
Precip. -- in
6:28 AM 7:46 PM
First Quarter, 53% visible
Pressure 29.92 in
Visibility 10.0 miles
Clouds Mostly Cloudy 1800 ft
Overcast 4000 ft
Dew Point 55 °F
Humidity 82%
Rainfall 0.00 in
Snow Depth 0 in
UV 1.3 out of 12
Pollen 2.50 out of 12
Air Quality Not available.
Flu Activity Not available.
METAR KPAE 021753Z VRB03KT 10SM BKN018 OVC040 16/12 A2992 RMK AO2 SLP131 T01560117 10156 20133 56010

More Conditions Fewer Conditions

Pressure 29.92 in
Visibility 10.0 miles
Clouds Mostly Cloudy 1800 ft
Overcast 4000 ft
Dew Point 55 °F
Humidity 82%
Rainfall 0.00 in
Snow Depth 0 in
UV 1.3 out of 12
Pollen 2.50 out of 12
Air Quality Not available.
Flu Activity Not available.
METAR KPAE 021753Z VRB03KT 10SM BKN018 OVC040 16/12 A2992 RMK AO2 SLP131 T01560117 10156 20133 56010

More Conditions Fewer Conditions

10-Day Weather Forecast

Almanac

Astronomy

Sep. 02, 2014 Rise Set
Actual Time 6:28 AM PDT 7:46 PM PDT
Civil Twilight 5:56 AM PDT 8:18 PM PDT
Nautical Twilight 5:17 AM PDT 8:57 PM PDT
Astronomical Twilight 4:35 AM PDT 9:38 PM PDT
Moon 2:49 PM PDT No Moon Set
Length of Visible Light 14h 22m
Length of Day
13h 18m
Tomorrow will be 3m 21s shorter.
First Quarter, 53% of the Moon is Illuminated
Today
First Quarter
Sep 8
Full
Sep 15
Last Quarter
Sep 24
New
Oct 1
First Quarter

Today's Extremes

State Highs State Lows

Community

WunderPhotos

Upload Photos

1,749,724 photos uploaded!

WunderBlogs® & News

Nearby

Snow Depth

Station Depth Elevation
Alpine Meadows 0 in 3500 ft
Dungeness 0 in 4100 ft
Stevens Pass 0 in 4070 ft
Meadows Pass 0 in 3500 ft
Stampede Pass 2 in 3860 ft

Earthquake Activity

City Distance Mag. Time & Date
No recent earthquake activity has been reported nearby.
Minimum magnitude displayed is 2.5.

Coastal Water Temperatures

Place Temperature
Port Townsend, WA 53.1 °F
Seattle, WA 55.9 °F
Friday Harbor, WA 52.0 °F
Tacoma, WA 55.0 °F

Nearby Weather Stations